Lagos, Nigeria
Current Conditions -  °F | °C
As of 7:00 AM on Sunday 21 Dec 2014 (Local Time) from DBBB Reporting Station
Haze Haze  
Wind Chill: 25°   Ceiling: Unl
Heat Index: 25°   Visibility: 2.1mi
Dew Point: 25°   Wind: 3mph
Humidity: 100%   Direction: NA
Pressure: 29.83"   Gusts: NA
Location:  6.45°N, 3.47°E
Report Text: DBBB 210600Z VRB03KT 3500 BR SCT012 25/25 Q1010 TEMPO 2000 BR
Loading
Personal Weather Stations






























Interactive Weather Map New forecast layout! Learn more

10-Day Weather Forecast

Advertisements
Track Severe Weather on mobile